Time;durP1;ratioP1;P1;durP2;ratioP2;P2;SDS_P1;SDS_P2;PMS_P1;PMS_P2;Temp;Humidity;BMP_temperature;BMP_pressure;BME280_temperature;BME280_humidity;BME280_pressure;Samples;Min_cycle;Max_cycle;Signal;HPM_P1;HPM_P2
2022/03/14 00:12:55;;;;;;;17.63;9.52;;;-3.20;1.00;;;-2.88;86.75;100847.97;4874791;28;129788;-86
2022/03/14 00:20:13;;;;;;;14.68;8.00;;;-3.50;1.00;;;-3.01;87.36;100848.63;4891210;28;118807;-86
2022/03/14 00:23:41;;;;;;;18.50;8.68;;;-3.50;1.00;;;-2.93;87.26;100851.19;4859010;28;114496;-87
2022/03/14 00:32:55;;;;;;;15.52;8.20;;;-3.80;1.00;;;-3.04;86.75;100850.84;4858859;28;118452;-88
2022/03/14 00:43:12;;;;;;;14.07;6.85;;;-4.00;1.00;;;-3.20;86.23;100854.56;4877744;28;128910;-86
2022/03/14 00:49:01;;;;;;;14.50;7.32;;;-4.10;1.00;;;-3.23;86.93;100854.94;4858114;28;113387;-87
2022/03/14 00:51:39;;;;;;;15.20;7.35;;;-4.00;1.00;;;-3.23;87.19;100854.94;4872249;28;129575;-87
2022/03/14 00:54:09;;;;;;;14.30;7.32;;;-4.10;1.00;;;-3.23;87.09;100861.06;4858512;28;129233;-87
2022/03/14 00:56:43;;;;;;;18.60;8.20;;;-4.10;1.00;;;-3.34;87.46;100854.41;4858629;28;117520;-88
2022/03/14 01:05:53;;;;;;;16.58;8.52;;;-4.00;1.00;;;-3.31;87.92;100869.97;4842095;28;130112;-87
2022/03/14 01:09:07;;;;;;;15.35;8.88;;;-4.00;1.00;;;-3.36;87.72;100861.75;4892457;28;119022;-87
2022/03/14 01:11:36;;;;;;;16.33;7.45;;;-4.10;1.00;;;-3.37;88.14;100860.09;4858618;28;114542;-88
2022/03/14 01:14:06;;;;;;;16.80;8.55;;;-4.10;1.00;;;-3.40;87.64;100859.66;4857821;28;129880;-89
2022/03/14 01:16:35;;;;;;;14.57;7.72;;;-4.20;1.00;;;-3.39;87.78;100862.13;4858558;28;127784;-87
2022/03/14 01:19:11;;;;;;;16.90;7.60;;;-4.20;1.00;;;-3.37;87.68;100854.78;4858123;28;118241;-87
2022/03/14 01:21:44;;;;;;;14.95;7.38;;;-4.20;1.00;;;-3.44;88.09;100859.22;4859144;28;114476;-87
2022/03/14 01:24:48;;;;;;;12.38;7.38;;;-4.20;1.00;;;-3.50;87.47;100865.25;4891226;28;129220;-87
2022/03/14 01:27:22;;;;;;;15.75;8.32;;;-4.30;1.00;;;-3.53;88.16;100862.97;4859725;28;127578;-87
2022/03/14 01:30:01;;;;;;;17.73;8.38;;;-4.30;1.00;;;-3.60;88.04;100865.53;4842051;28;118253;-88
2022/03/14 01:32:41;;;;;;;15.88;8.30;;;-4.30;1.00;;;-3.66;88.65;100861.78;4845512;28;115248;-86
2022/03/14 01:38:50;;;;;;;14.55;7.82;;;-4.20;1.00;;;-3.73;88.41;100866.19;4856651;28;130753;-88
2022/03/14 01:41:56;;;;;;;18.05;7.53;;;-4.40;1.00;;;-3.74;89.61;100867.22;4858125;28;118417;-87
2022/03/14 01:44:32;;;;;;;13.60;6.78;;;-4.30;1.00;;;-3.73;89.65;100876.78;4887181;28;114657;-86
2022/03/14 01:47:41;;;;;;;15.70;8.02;;;-4.30;1.00;;;-3.75;89.63;100873.50;4872985;28;129464;-87
2022/03/14 01:54:51;;;;;;;16.38;7.82;;;-4.40;1.00;;;-3.79;89.18;100866.91;4843681;28;118003;-86
2022/03/14 02:05:56;;;;;;;17.15;8.85;;;-4.40;1.00;;;-3.76;90.27;100877.16;4859882;28;128539;-88
2022/03/14 02:08:29;;;;;;;18.40;8.18;;;-4.30;1.00;;;-3.72;90.23;100873.13;4862848;28;117238;-89
2022/03/14 02:11:12;;;;;;;13.05;7.72;;;-4.20;1.00;;;-3.71;89.72;100869.50;4846453;28;114451;-89
2022/03/14 02:13:53;;;;;;;17.75;8.52;;;-4.30;1.00;;;-3.72;90.08;100873.13;4832347;28;129145;-89
2022/03/14 02:16:22;;;;;;;16.40;7.57;;;-4.30;1.00;;;-3.69;89.11;100878.09;4860317;28;128528;-88
2022/03/14 02:18:51;;;;;;;14.82;7.45;;;-4.40;1.00;;;-3.71;89.01;100880.09;4861128;28;117999;-87
2022/03/14 02:21:28;;;;;;;12.10;6.82;;;-4.50;1.00;;;-3.80;89.61;100886.50;4862061;28;113675;-87
2022/03/14 02:23:58;;;;;;;12.50;6.90;;;-4.50;1.00;;;-3.82;89.28;100888.50;4845494;28;127833;-86
2022/03/14 02:26:28;;;;;;;14.65;8.32;;;-4.50;1.00;;;-3.82;89.10;100881.38;4845460;28;128877;-89
2022/03/14 02:28:58;;;;;;;13.18;7.43;;;-4.50;1.00;;;-3.86;89.08;100889.88;4860249;28;118009;-88
2022/03/14 02:31:27;;;;;;;14.95;6.93;;;-4.60;1.00;;;-3.86;89.16;100889.88;4862082;28;115113;-87
2022/03/14 02:34:02;;;;;;;14.35;7.43;;;-4.70;1.00;;;-3.92;88.98;100893.28;4861507;28;129136;-86
2022/03/14 02:36:56;;;;;;;16.00;8.07;;;-4.70;1.00;;;-3.99;89.40;100880.72;4833052;28;128921;-87
2022/03/14 02:46:05;;;;;;;15.32;8.63;;;-4.70;1.00;;;-4.11;91.12;100884.00;4865630;28;130443;-85
2022/03/14 02:49:30;;;;;;;16.23;8.75;;;-4.70;1.00;;;-4.05;90.74;100883.25;4863534;28;129151;-86
2022/03/14 02:52:09;;;;;;;17.08;7.95;;;-4.60;1.00;;;-4.02;89.87;100894.34;4861642;28;118942;-88
2022/03/14 02:59:00;;;;;;;17.23;8.18;;;-4.70;1.00;;;-4.10;90.26;100886.47;4868510;28;130652;-86
2022/03/14 03:01:57;;;;;;;15.02;8.18;;;-4.70;1.00;;;-4.07;90.64;100896.69;4875250;28;130272;-86
2022/03/14 03:09:32;;;;;;;16.17;7.65;;;-4.70;1.00;;;-4.12;91.84;100890.31;4869649;28;114605;-86
2022/03/14 03:20:22;;;;;;;16.08;8.10;;;-4.10;1.00;;;-3.75;92.90;100884.13;4874400;28;118490;-84
2022/03/14 03:23:20;;;;;;;17.25;8.20;;;-4.00;1.00;;;-3.55;92.86;100888.84;4885627;28;114207;-85
2022/03/14 03:25:49;;;;;;;14.68;6.88;;;-3.80;1.00;;;-3.46;91.80;100893.91;4882118;28;128764;-84
2022/03/14 03:28:19;;;;;;;14.23;7.20;;;-3.80;1.00;;;-3.37;91.58;100897.25;4867154;28;129277;-85
2022/03/14 03:30:49;;;;;;;15.35;7.93;;;-3.60;1.00;;;-3.31;91.51;100893.88;4850833;28;118324;-87
2022/03/14 03:33:18;;;;;;;35.33;15.05;;;-3.50;1.00;;;-3.25;91.41;100898.44;4866933;28;114555;-85
2022/03/14 03:36:36;;;;;;;31.23;15.38;;;-3.40;1.00;;;-3.22;90.74;100891.13;4867239;28;128985;-86
2022/03/14 03:39:25;;;;;;;22.85;11.77;;;-3.30;1.00;;;-3.18;90.53;100889.72;4890860;28;130991;-87
2022/03/14 03:41:56;;;;;;;17.65;9.23;;;-3.30;1.00;;;-3.18;90.34;100892.38;4872560;28;118359;-86
2022/03/14 03:51:53;;;;;;;12.13;7.38;;;-3.60;1.00;;;-3.31;89.92;100885.91;4860159;29;129943;-85
2022/03/14 03:54:58;;;;;;;14.57;7.85;;;-3.70;1.00;;;-3.27;89.67;100881.88;4862668;29;118265;-87
2022/03/14 04:04:46;;;;;;;14.07;7.32;;;-3.80;1.00;;;-3.33;90.41;100887.13;4842800;29;129237;-87
2022/03/14 04:10:55;;;;;;;15.88;7.50;;;-3.50;1.00;;;-3.28;90.89;100895.34;4841559;29;114237;-88
2022/03/14 04:13:24;;;;;;;17.50;8.63;;;-3.40;1.00;;;-3.21;91.17;100898.06;4819700;29;129466;-88
2022/03/14 04:15:54;;;;;;;20.38;10.00;;;-3.30;1.00;;;-3.16;90.93;100901.00;4819427;29;130253;-86
2022/03/14 04:21:24;;;;;;;13.20;8.73;;;-3.00;1.00;;;-3.01;90.29;100900.94;4824179;29;114603;-87
2022/03/14 04:23:55;;;;;;;17.60;8.38;;;-3.10;1.00;;;-3.16;90.63;100903.66;4820854;29;127745;-87
2022/03/14 04:26:52;;;;;;;14.85;8.23;;;-3.00;1.00;;;-3.09;90.21;100899.22;4819198;29;128404;-87
2022/03/14 04:29:32;;;;;;;;;;;-2.90;1.00;;;-3.15;90.36;100899.97;4820997;29;118247;-87
2022/03/14 04:32:01;;;;;;;14.75;7.72;;;-2.90;1.00;;;-3.05;90.14;100910.28;4852359;29;113965;-88
2022/03/14 04:34:33;;;;;;;12.40;7.32;;;-2.90;1.00;;;-3.04;90.05;100907.44;4805528;29;129133;-87
2022/03/14 04:37:04;;;;;;;18.20;8.40;;;-3.00;1.00;;;-3.03;89.54;100914.41;4837792;29;129021;-85
2022/03/14 04:39:50;;;;;;;19.67;9.02;;;-3.00;1.00;;;-2.99;89.84;100902.41;4836461;29;116787;-87
2022/03/14 04:42:38;;;;;;;22.27;11.63;;;-3.00;1.00;;;-2.87;89.95;100913.34;4826408;29;115154;-86
2022/03/14 04:45:12;;;;;;;21.55;11.15;;;-2.90;1.00;;;-2.79;88.68;100918.56;4839700;29;129642;-85
2022/03/14 04:47:48;;;;;;;16.65;9.35;;;-2.90;1.00;;;-2.77;88.75;100915.72;4820487;29;128851;-86
2022/03/14 04:50:56;;;;;;;14.13;8.13;;;-2.90;1.00;;;-2.81;88.46;100917.91;4840133;29;117596;-88
2022/03/14 04:54:14;;;;;;;11.90;7.32;;;-2.80;1.00;;;-2.69;88.09;100910.28;4811503;29;114013;-87
2022/03/14 04:57:22;;;;;;;14.60;7.45;;;-2.70;1.00;;;-2.62;87.81;100919.13;4851057;28;129744;-85
2022/03/14 04:59:59;;;;;;;18.77;7.60;;;-2.80;1.00;;;-2.55;87.80;100921.88;4876926;28;129965;-87
2022/03/14 05:02:29;;;;;;;13.48;7.38;;;-2.80;1.00;;;-2.45;87.21;100919.69;4858443;28;118388;-87
2022/03/14 05:04:59;;;;;;;13.57;7.25;;;-2.80;1.00;;;-2.28;86.34;100925.59;4859437;28;114406;-88
2022/03/14 05:07:28;;;;;;;15.93;7.82;;;-2.80;1.00;;;-2.17;85.98;100919.75;4856210;28;129573;-87
2022/03/14 05:09:57;;;;;;;14.90;8.80;;;-2.70;1.00;;;-2.10;85.70;100922.47;4873160;28;129462;-87
2022/03/14 05:12:27;;;;;;;12.98;7.55;;;-2.70;1.00;;;-2.02;85.17;100917.00;4858320;28;118096;-88
2022/03/14 05:14:58;;;;;;;15.00;7.65;;;-2.70;1.00;;;-1.89;84.38;100926.91;4843263;28;113415;-86
2022/03/14 05:17:40;;;;;;;17.50;9.90;;;-2.70;1.00;;;-2.04;84.56;100931.50;4842660;28;128965;-86
2022/03/14 05:20:11;;;;;;;16.35;9.68;;;-2.60;1.00;;;-1.93;84.74;100925.66;4858071;28;128623;-87
2022/03/14 05:22:43;;;;;;;13.15;7.40;;;-2.60;1.00;;;-2.00;85.13;100940.75;4857742;28;117980;-87
2022/03/14 05:25:13;;;;;;;14.32;7.65;;;-2.50;1.00;;;-1.82;84.55;100932.28;4857879;28;115358;-88
2022/03/14 05:27:43;;;;;;;15.35;7.75;;;-2.50;1.00;;;-1.68;83.83;100933.19;4840488;28;128929;-86
2022/03/14 05:30:13;;;;;;;13.50;7.45;;;-2.40;1.00;;;-1.54;83.20;100934.06;4857304;28;127825;-89
2022/03/14 05:32:44;;;;;;;20.40;8.85;;;-2.30;1.00;;;-1.38;83.12;100924.97;4857562;28;117570;-87
2022/03/14 05:35:15;;;;;;;15.88;7.95;;;-2.20;1.00;;;-1.44;83.07;100929.22;4857824;28;114102;-86
2022/03/14 05:37:46;;;;;;;14.00;6.90;;;-2.20;1.00;;;-1.25;82.39;100919.69;4859297;28;128454;-86
2022/03/14 05:40:17;;;;;;;16.20;7.90;;;-2.10;1.00;;;-1.10;82.10;100923.03;4860391;28;129209;-86
2022/03/14 05:42:49;;;;;;;15.25;8.15;;;-2.00;1.00;;;-0.92;81.50;100925.16;4862328;28;117820;-86
2022/03/14 05:45:21;;;;;;;16.85;8.20;;;-1.90;1.00;;;-0.81;80.66;100926.41;4862633;28;114773;-87
2022/03/14 05:47:52;;;;;;;13.05;7.43;;;-1.80;1.00;;;-0.89;80.74;100931.91;4861192;28;129643;-86
2022/03/14 05:50:22;;;;;;;14.27;7.40;;;-1.80;1.00;;;-0.82;80.39;100930.09;4861106;28;129011;-87
2022/03/14 05:52:51;;;;;;;13.35;7.80;;;-1.70;1.00;;;-1.10;80.79;100928.34;4861299;28;118237;-88
2022/03/14 05:55:19;;;;;;;14.27;7.78;;;-1.70;1.00;;;-0.74;80.79;100929.91;4862628;28;114126;-87
2022/03/14 05:57:49;;;;;;;20.42;10.88;;;-1.50;1.00;;;-0.46;79.25;100926.25;4844636;28;129645;-86
2022/03/14 06:00:24;;;;;;;15.02;7.15;;;-1.40;1.00;;;-0.53;78.63;100936.13;4860617;28;127972;-86
2022/03/14 06:02:55;;;;;;;;;;;-1.40;1.00;;;-0.49;78.56;100932.00;4860999;28;118075;-88
2022/03/14 06:05:25;;;;;;;14.20;6.95;;;-1.30;1.00;;;-0.30;78.19;100934.91;4875723;28;113158;-85
2022/03/14 06:07:56;;;;;;;20.73;9.60;;;-1.20;1.00;;;-0.22;77.91;100940.88;4876292;28;129811;-85
2022/03/14 06:10:25;;;;;;;13.30;7.78;;;-1.10;1.00;;;-0.16;77.48;100935.72;4877268;28;127934;-84
2022/03/14 06:12:57;;;;;;;11.32;7.18;;;-1.10;1.00;;;-0.09;77.05;100939.22;4894808;28;118028;-85
2022/03/14 06:15:29;;;;;;;21.20;10.40;;;-1.00;1.00;;;0.02;77.18;100945.75;4850965;28;115319;-84
2022/03/14 06:17:59;;;;;;;18.42;10.57;;;-0.90;1.00;;;0.11;76.27;100944.53;4874289;28;129943;-85
2022/03/14 06:20:29;;;;;;;16.92;9.27;;;-0.80;1.00;;;0.36;75.81;100944.72;4871806;28;127791;-85
2022/03/14 06:23:01;;;;;;;15.93;9.23;;;-0.60;1.00;;;0.56;74.36;100955.34;4875969;28;118246;-85
2022/03/14 06:25:31;;;;;;;14.63;8.10;;;-0.40;1.00;;;0.73;74.18;100954.91;4852965;28;113612;-83
2022/03/14 06:28:08;;;;;;;25.90;11.73;;;-0.40;1.00;;;0.95;73.33;100948.25;4894512;28;129029;-86
2022/03/14 06:30:44;;;;;;;16.65;9.57;;;-0.20;1.00;;;0.93;72.72;100950.31;4876559;28;128599;-85
2022/03/14 06:33:16;;;;;;;18.67;10.27;;;-0.10;1.00;;;1.00;72.55;100956.44;4878850;28;117748;-85
2022/03/14 06:35:52;;;;;;;21.48;9.10;;;0.00;1.00;;;1.06;72.71;100944.91;4864043;28;113887;-86
2022/03/14 06:38:40;;;;;;;23.30;11.68;;;0.00;1.00;;;1.24;72.40;100941.50;4879499;28;128387;-84
2022/03/14 06:41:16;;;;;;;17.33;8.27;;;0.10;1.00;;;1.33;71.11;100955.47;4906063;28;128065;-82
2022/03/14 06:43:46;;;;;;;16.00;8.18;;;0.30;1.00;;;1.08;71.96;100953.53;4890200;28;117456;-84
2022/03/14 06:46:39;;;;;;;14.23;8.20;;;0.10;1.00;;;1.34;71.85;100962.47;4902080;28;114635;-86
2022/03/14 06:49:20;;;;;;;15.70;8.38;;;0.30;1.00;;;1.25;70.81;100958.41;4876211;28;128362;-83
2022/03/14 06:51:51;;;;;;;21.42;11.18;;;0.40;1.00;;;1.48;70.82;100957.03;4888468;28;129151;-85
2022/03/14 06:54:19;;;;;;;23.17;10.48;;;0.40;1.00;;;1.88;69.60;100962.09;4872833;28;117304;-86
2022/03/14 06:56:50;;;;;;;17.23;9.60;;;0.70;1.00;;;1.98;68.63;100962.44;4870887;28;115095;-84
2022/03/14 06:59:21;;;;;;;16.35;9.07;;;0.90;1.00;;;2.11;68.58;100951.59;4885806;28;129646;-85
2022/03/14 07:02:01;;;;;;;21.45;9.85;;;0.90;1.00;;;2.19;67.70;100963.09;4872454;28;129049;-85
2022/03/14 07:04:53;;;;;;;16.80;8.77;;;1.00;1.00;;;2.26;67.19;100961.16;4904443;28;118331;-85
2022/03/14 07:07:25;;;;;;;14.73;8.50;;;1.10;1.00;;;2.24;66.73;100973.97;4874170;28;115184;-87
2022/03/14 07:10:00;;;;;;;16.90;9.07;;;1.20;1.00;;;2.40;66.68;100970.72;4889029;28;129241;-86
2022/03/14 07:12:37;;;;;;;16.85;8.55;;;1.20;1.00;;;2.33;66.74;100973.44;4865970;28;128783;-87
2022/03/14 07:15:06;;;;;;;14.10;7.67;;;1.20;1.00;;;2.46;66.49;100963.66;4860463;28;117266;-88
2022/03/14 07:17:37;;;;;;;16.13;7.70;;;1.40;1.00;;;2.36;66.55;100969.53;4876051;28;115057;-89
2022/03/14 07:20:10;;;;;;;18.23;8.75;;;1.40;1.00;;;2.63;65.96;100974.63;4873745;28;129556;-87
2022/03/14 07:22:53;;;;;;;14.23;8.25;;;1.50;1.00;;;2.63;65.49;100970.09;4860335;28;128773;-87
2022/03/14 07:25:24;;;;;;;18.15;8.73;;;1.70;1.00;;;2.73;65.75;100974.94;4860600;28;117062;-88
2022/03/14 07:27:54;;;;;;;16.27;7.90;;;1.70;1.00;;;2.87;64.76;100980.97;4844953;28;114464;-88
2022/03/14 07:30:23;;;;;;;15.07;8.65;;;1.80;1.00;;;3.02;64.90;100980.56;4859045;28;129271;-86
2022/03/14 07:32:54;;;;;;;16.27;9.27;;;1.90;1.00;;;2.99;64.10;100978.34;4862154;28;129125;-87
2022/03/14 07:35:24;;;;;;;19.33;9.07;;;1.90;1.00;;;2.93;65.07;100968.50;4859438;28;117989;-86
2022/03/14 07:37:53;;;;;;;16.25;8.35;;;1.90;1.00;;;3.19;64.81;100983.47;4860962;28;114145;-85
2022/03/14 07:40:24;;;;;;;20.48;8.95;;;2.00;1.00;;;3.48;63.47;100983.72;4859508;28;128511;-86
2022/03/14 07:42:56;;;;;;;18.15;8.73;;;2.20;1.00;;;3.70;62.57;100979.44;4859169;28;128719;-87
2022/03/14 07:45:28;;;;;;;18.13;8.23;;;2.30;1.00;;;3.94;61.64;100985.72;4860221;28;118103;-85
2022/03/14 07:47:59;;;;;;;15.15;7.28;;;2.50;1.00;;;3.96;61.53;100978.22;4860801;28;115845;-85
2022/03/14 07:50:29;;;;;;;14.55;7.70;;;2.60;1.00;;;3.96;61.79;100983.59;4859730;28;129062;-88
2022/03/14 07:52:58;;;;;;;13.07;7.72;;;2.60;1.00;;;3.94;61.46;100980.34;4844550;28;128645;-87
2022/03/14 07:55:41;;;;;;;18.73;8.80;;;2.60;1.00;;;4.10;60.84;100976.16;4859591;28;118938;-87
2022/03/14 07:58:11;;;;;;;20.38;8.70;;;2.80;1.00;;;4.24;60.57;100978.59;4859848;28;116373;-86
2022/03/14 08:00:40;;;;;;;15.57;7.65;;;2.90;1.00;;;4.14;59.88;100963.06;4859614;28;128810;-88
2022/03/14 08:03:10;;;;;;;12.98;7.22;;;3.00;1.00;;;4.03;60.69;100977.31;4843427;28;128865;-87
2022/03/14 08:05:39;;;;;;;15.15;7.93;;;2.90;1.00;;;4.41;60.22;100967.97;4859296;28;118348;-87
2022/03/14 08:08:08;;;;;;;17.90;8.45;;;3.00;1.00;;;4.66;59.57;100968.53;4859170;28;114383;-86
2022/03/14 08:10:39;;;;;;;15.50;8.02;;;3.30;1.00;;;4.81;58.33;100964.53;4860387;28;130639;-87
2022/03/14 08:13:08;;;;;;;15.32;7.55;;;3.40;1.00;;;4.92;58.22;100963.69;4859025;28;127723;-86
2022/03/14 08:15:37;;;;;;;19.45;7.70;;;3.40;1.00;;;4.83;58.32;100959.72;4859214;28;118750;-86
2022/03/14 08:18:08;;;;;;;17.45;8.13;;;3.50;1.00;;;4.74;59.07;100963.88;4876670;28;113312;-85
2022/03/14 08:20:39;;;;;;;15.10;7.60;;;3.50;1.00;;;4.85;58.37;100965.72;4858894;28;128754;-86
2022/03/14 08:23:10;;;;;;;17.60;7.72;;;3.60;1.00;;;4.83;58.32;100962.41;4858811;28;128608;-86
2022/03/14 08:25:39;;;;;;;19.08;8.95;;;3.60;1.00;;;4.64;57.36;100962.59;4859071;28;117630;-86
2022/03/14 08:28:08;;;;;;;18.17;10.15;;;3.60;1.00;;;5.24;56.83;100960.56;4859608;28;114396;-87
2022/03/14 08:30:38;;;;;;;14.27;6.90;;;4.00;1.00;;;5.66;56.16;100957.56;4874522;28;128941;-87
2022/03/14 08:33:08;;;;;;;12.07;6.82;;;4.10;1.00;;;5.73;54.49;100963.63;4858934;28;128822;-87
2022/03/14 08:35:44;;;;;;;12.23;7.13;;;4.20;1.00;;;5.50;55.21;100953.78;4894513;28;117974;-86
2022/03/14 08:38:15;;;;;;;12.00;7.68;;;4.10;1.00;;;5.42;54.75;100951.44;4862195;28;113522;-86
2022/03/14 08:40:44;;;;;;;12.88;7.07;;;4.20;1.00;;;5.39;54.69;100963.53;4858862;28;130133;-88
2022/03/14 08:43:13;;;;;;;15.63;8.10;;;4.10;1.00;;;5.55;54.92;100950.34;4858698;28;128655;-86
2022/03/14 08:45:52;;;;;;;14.10;7.18;;;4.20;1.00;;;5.48;54.15;100949.69;4858026;28;117200;-87
2022/03/14 08:48:26;;;;;;;17.42;8.10;;;4.40;1.00;;;5.74;53.86;100954.44;4859108;28;115178;-87
2022/03/14 08:51:24;;;;;;;15.98;7.75;;;4.40;1.00;;;6.00;53.52;100952.22;4843054;28;129997;-87
2022/03/14 08:53:52;;;;;;;11.10;6.67;;;4.50;1.00;;;6.01;53.21;100956.53;4858099;28;128677;-87
2022/03/14 08:56:21;;;;;;;12.85;6.85;;;4.60;1.00;;;6.19;53.47;100949.28;4865291;28;117584;-87
2022/03/14 08:58:54;;;;;;;13.20;6.35;;;4.70;1.00;;;6.33;52.66;100949.72;4859927;28;114408;-85
2022/03/14 09:01:23;;;;;;;13.40;6.43;;;4.90;1.00;;;6.46;52.61;100950.19;4861869;28;128611;-88
2022/03/14 09:03:52;;;;;;;12.18;6.35;;;5.00;1.00;;;6.36;52.25;100943.84;4843471;28;129406;-87
2022/03/14 09:06:24;;;;;;;12.65;6.35;;;4.90;1.00;;;6.44;52.30;100936.16;4858366;28;117641;-86
2022/03/14 09:08:52;;;;;;;12.48;7.53;;;4.80;1.00;;;6.55;51.94;100937.09;4858080;28;114341;-86
2022/03/14 09:11:28;;;;;;;14.52;8.13;;;5.10;1.00;;;6.40;52.08;100940.38;4858420;28;129265;-87
2022/03/14 09:14:04;;;;;;;13.70;7.35;;;5.00;1.00;;;6.35;51.95;100943.03;4872730;28;128957;-86
2022/03/14 09:16:37;;;;;;;13.73;6.93;;;4.90;1.00;;;6.03;52.04;100946.34;4869293;28;118231;-86
2022/03/14 09:22:44;;;;;;;11.98;6.72;;;4.50;1.00;;;5.66;53.01;100936.00;4909975;28;131036;-87
2022/03/14 09:25:50;;;;;;;18.80;8.07;;;4.50;1.00;;;5.75;53.13;100934.53;4890315;28;128856;-85
2022/03/14 09:28:21;;;;;;;10.82;6.88;;;4.80;1.00;;;5.69;53.28;100930.13;4878259;28;117767;-84
2022/03/14 09:31:07;;;;;;;14.23;8.07;;;4.60;1.00;;;5.55;53.21;100934.19;4877712;28;113515;-87
2022/03/14 09:34:02;;;;;;;15.00;8.52;;;4.50;1.00;;;5.73;53.88;100920.50;4880425;28;128981;-86
2022/03/14 09:36:31;;;;;;;17.38;9.55;;;4.60;1.00;;;5.84;53.15;100934.94;4878037;28;128778;-88
2022/03/14 09:39:01;;;;;;;17.30;7.72;;;4.80;1.00;;;5.75;53.02;100933.72;4876313;28;117226;-86
2022/03/14 09:44:54;;;;;;;14.90;7.93;;;4.70;1.00;;;5.70;53.05;100952.47;4881370;28;129299;-87
2022/03/14 09:47:43;;;;;;;13.77;7.43;;;4.80;1.00;;;6.03;52.82;100927.47;4898499;28;129557;-87
2022/03/14 09:50:16;;;;;;;14.57;7.05;;;4.90;1.00;;;6.19;52.18;100946.59;4883161;28;116973;-85
2022/03/14 09:52:48;;;;;;;13.75;7.82;;;5.00;1.00;;;6.15;52.47;100938.16;4883025;28;114322;-86
2022/03/14 09:55:30;;;;;;;14.30;7.25;;;4.90;1.00;;;6.04;52.76;100937.16;4865783;28;129823;-86
2022/03/14 09:57:59;;;;;;;13.32;7.50;;;5.10;1.00;;;6.25;51.81;100935.63;4865446;28;127707;-86
2022/03/14 10:00:32;;;;;;;13.10;7.60;;;5.10;1.00;;;5.87;52.88;100944.41;4866659;28;118211;-86
2022/03/14 10:03:05;;;;;;;13.30;8.27;;;5.00;1.00;;;6.07;52.46;100931.28;4881186;28;113918;-87
2022/03/14 10:05:34;;;;;;;12.10;7.32;;;5.00;1.00;;;6.24;52.55;100941.25;4880547;28;128983;-87
2022/03/14 10:08:09;;;;;;;18.38;7.57;;;5.10;1.00;;;6.36;52.04;100933.03;4864902;28;128891;-87
2022/03/14 10:10:48;;;;;;;14.88;7.95;;;5.20;1.00;;;6.29;52.42;100931.38;4880112;28;118476;-87
2022/03/14 10:13:26;;;;;;;12.43;7.45;;;5.30;1.00;;;6.35;52.18;100926.84;4881379;28;114817;-87
2022/03/14 10:15:59;;;;;;;12.95;6.63;;;5.30;1.00;;;6.52;51.79;100926.00;4879393;28;128608;-87
2022/03/14 10:18:41;;;;;;;15.20;7.05;;;5.40;1.00;;;6.44;51.79;100925.34;4897977;28;129190;-86
2022/03/14 10:21:15;;;;;;;12.25;6.78;;;5.30;1.00;;;6.53;51.29;100917.66;4866514;28;116838;-87
2022/03/14 10:23:47;;;;;;;15.00;6.82;;;5.50;1.00;;;6.51;51.41;100927.88;4882429;28;114095;-86
2022/03/14 10:26:21;;;;;;;13.82;8.77;;;5.40;1.00;;;6.77;51.19;100914.72;4881748;28;129302;-86
2022/03/14 10:28:58;;;;;;;13.43;7.78;;;5.50;1.00;;;6.88;50.07;100924.56;4880447;28;128712;-88
2022/03/14 10:31:34;;;;;;;;;;;5.70;1.00;;;6.82;51.38;100921.00;4883607;28;118378;-87
2022/03/14 10:34:10;;;;;;;18.00;9.77;;;5.70;1.00;;;6.97;51.64;100927.66;4852524;28;114891;-85
2022/03/14 10:37:12;;;;;;;;;;;5.80;1.00;;;6.70;51.65;100911.38;4876065;28;129247;-86
2022/03/14 10:39:42;;;;;;;14.40;7.85;;;5.90;1.00;;;6.81;51.14;100913.97;4861674;28;128374;-88
2022/03/14 10:42:21;;;;;;;16.55;8.25;;;5.70;1.00;;;6.88;50.80;100919.16;4879837;28;118820;-85
2022/03/14 10:45:12;;;;;;;12.82;7.00;;;5.70;1.00;;;6.94;50.61;100917.34;4850239;28;114301;-86
2022/03/14 10:48:15;;;;;;;13.90;7.28;;;5.60;1.00;;;6.98;50.40;100923.84;4865993;28;128868;-85
2022/03/14 10:50:47;;;;;;;13.93;7.32;;;5.90;1.00;;;7.23;49.80;100925.22;4860749;28;128423;-86
2022/03/14 10:53:34;;;;;;;27.35;8.35;;;5.90;1.00;;;7.10;49.87;100921.84;4860345;28;117004;-88
2022/03/14 10:56:10;;;;;;;20.25;7.40;;;5.90;1.00;;;7.08;49.89;100913.19;4859391;28;114983;-87
2022/03/14 10:58:43;;;;;;;13.35;7.95;;;5.80;1.00;;;7.20;50.40;100911.16;4843980;28;128840;-86
2022/03/14 11:01:16;;;;;;;16.88;9.15;;;5.90;1.00;;;7.36;49.47;100903.22;4843559;28;127798;-87
2022/03/14 11:03:46;;;;;;;14.77;8.68;;;6.10;1.00;;;7.23;49.09;100909.00;4844309;28;118451;-85
2022/03/14 11:06:44;;;;;;;17.13;9.05;;;6.00;1.00;;;6.96;49.76;100899.81;4842856;28;114363;-88
2022/03/14 11:09:17;;;;;;;14.57;7.70;;;5.80;1.00;;;7.24;49.74;100894.44;4840959;28;129449;-86
2022/03/14 11:11:46;;;;;;;17.50;8.45;;;6.00;1.00;;;7.48;50.03;100890.38;4841915;28;129549;-87
2022/03/14 11:14:22;;;;;;;19.23;8.07;;;6.30;1.00;;;7.51;48.64;100900.66;4858787;28;117999;-87
2022/03/14 11:17:22;;;;;;;14.43;7.38;;;6.30;1.00;;;7.26;49.86;100892.31;4859155;28;114173;-86
2022/03/14 11:19:57;;;;;;;13.82;7.95;;;6.20;1.00;;;7.26;50.02;100884.19;4842997;28;128181;-87
2022/03/14 11:22:34;;;;;;;14.35;7.40;;;6.20;1.00;;;7.40;49.54;100871.91;4854165;28;127618;-87
2022/03/14 11:25:08;;;;;;;12.98;7.15;;;6.30;1.00;;;7.52;49.59;100885.25;4856531;28;117764;-88
2022/03/14 11:27:42;;;;;;;12.02;7.15;;;6.40;1.00;;;7.50;49.12;100869.31;4847441;28;114325;-86
2022/03/14 11:30:14;;;;;;;17.10;7.15;;;6.20;1.00;;;7.94;48.94;100875.59;4860474;28;129012;-86
2022/03/14 11:32:45;;;;;;;14.88;7.60;;;6.60;1.00;;;7.95;48.73;100861.81;4846665;28;128122;-86
2022/03/14 11:35:15;;;;;;;15.63;7.43;;;6.70;1.00;;;7.84;48.42;100866.31;4859844;28;118140;-86
2022/03/14 11:37:46;;;;;;;12.65;7.43;;;6.80;1.00;;;7.91;48.50;100863.38;4875199;28;114191;-87
2022/03/14 11:40:17;;;;;;;13.52;7.40;;;6.70;1.00;;;8.00;47.71;100871.84;4863230;28;128780;-86
2022/03/14 11:47:10;;;;;;;12.48;6.65;;;6.50;1.00;;;7.88;48.52;100867.44;4874405;28;118708;-88
2022/03/14 11:54:40;;;;;;;14.60;6.72;;;6.80;1.00;;;7.80;47.61;100869.81;4878526;28;131108;-87
2022/03/14 11:57:10;;;;;;;13.18;6.18;;;6.60;1.00;;;7.91;47.91;100868.78;4859608;28;127526;-87
2022/03/14 11:59:41;;;;;;;13.25;6.95;;;6.50;1.00;;;7.93;48.08;100855.81;4857549;28;117413;-85
2022/03/14 12:02:12;;;;;;;10.80;6.32;;;6.60;1.00;;;7.76;48.24;100856.00;4858947;28;113514;-86
2022/03/14 12:04:41;;;;;;;12.57;7.50;;;6.50;1.00;;;7.94;48.28;100865.56;4845708;28;129087;-86
2022/03/14 12:07:29;;;;;;;16.67;6.63;;;6.70;1.00;;;7.91;47.96;100855.28;4860141;28;128633;-87
2022/03/14 12:10:03;;;;;;;11.75;6.55;;;6.80;1.00;;;8.04;48.14;100851.31;4862899;28;117555;-87
2022/03/14 12:13:41;;;;;;;14.95;6.97;;;6.90;1.00;;;7.99;48.18;100848.56;4863965;28;113875;-86
2022/03/14 12:20:24;;;;;;;12.95;6.43;;;6.90;1.00;;;8.03;47.98;100853.19;4890064;28;131108;-86
2022/03/14 12:27:08;;;;;;;13.35;6.60;;;7.00;1.00;;;8.20;47.85;100839.50;4868970;28;113916;-86
2022/03/14 12:29:55;;;;;;;19.45;6.93;;;6.80;1.00;;;8.10;48.31;100831.31;4851330;28;130099;-87
2022/03/14 12:40:53;;;;;;;18.17;7.63;;;7.20;1.00;;;8.42;47.91;100828.50;4873277;28;113735;-86
2022/03/14 12:46:47;;;;;;;15.25;7.55;;;7.30;1.00;;;8.41;48.06;100831.47;4886791;28;128724;-88
2022/03/14 12:50:27;;;;;;;11.80;6.50;;;7.30;1.00;;;8.53;47.89;100818.56;4889306;28;118509;-85
2022/03/14 12:57:34;;;;;;;17.00;7.57;;;7.50;1.00;;;8.69;47.90;100811.31;4859879;28;128307;-87
2022/03/14 13:03:57;;;;;;;15.77;6.78;;;7.20;1.00;;;8.67;47.88;100801.84;4874165;28;102597;-85
2022/03/14 13:06:49;;;;;;;16.67;7.22;;;7.30;1.00;;;8.68;48.19;100798.03;4863285;28;115186;-85
2022/03/14 13:09:56;;;;;;;10.05;6.25;;;7.40;1.00;;;8.39;47.62;100812.00;4861910;28;129828;-86
2022/03/14 13:12:43;;;;;;;15.65;7.50;;;7.30;1.00;;;8.33;48.25;100791.41;4902775;28;129641;-87
2022/03/14 13:15:34;;;;;;;11.85;6.82;;;7.10;1.00;;;8.35;48.51;100805.47;4854021;28;118285;-86
2022/03/14 13:18:57;;;;;;;13.35;6.70;;;7.30;1.00;;;8.35;48.70;100794.66;4886896;28;114572;-85
2022/03/14 13:22:23;;;;;;;14.00;7.85;;;7.30;1.00;;;8.47;47.99;100789.88;4887453;28;128869;-88
2022/03/14 13:25:16;;;;;;;15.80;7.60;;;7.40;1.00;;;8.37;48.36;100787.91;4878455;28;128712;-86